Lumberton, North Carolina
Current Conditions -  °F | °C
As of 11:54 AM on Friday 19 Dec 2014 (Local Time) from KLBT Reporting Station
Clear Clear  
Wind Chill: 54°   Ceiling: Unl
Heat Index: 54°   Visibility: 10mi
Dew Point: 25°   Wind: 5mph
Humidity: 33%   Direction: NA
Pressure: 30.14"   Gusts: NA
Location:  34.62°N, 79.01°W
Report Text: KLBT 191654Z AUTO VRB04KT 10SM CLR 12/M04 A3014 RMK AO2 SLP206 T01221039
Loading
Personal Weather Stations






























Interactive Weather Map New forecast layout! Learn more

10-Day Weather Forecast

Advertisements
Track Severe Weather on mobile